sensor_id;sensor_type;location;lat;lon;timestamp;P1;durP1;ratioP1;P2;durP2;ratioP2
34505;SDS011;20748;42.632;23.198;2023-08-17T00:00:16;15.13;;;8.77;;
34505;SDS011;20748;42.632;23.198;2023-08-17T00:02:49;10.93;;;7.90;;
34505;SDS011;20748;42.632;23.198;2023-08-17T00:05:22;11.35;;;7.60;;
34505;SDS011;20748;42.632;23.198;2023-08-17T00:07:54;13.05;;;8.43;;
34505;SDS011;20748;42.632;23.198;2023-08-17T00:10:26;14.55;;;8.57;;
34505;SDS011;20748;42.632;23.198;2023-08-17T00:12:59;12.90;;;8.07;;
34505;SDS011;20748;42.632;23.198;2023-08-17T00:15:33;13.95;;;8.02;;
34505;SDS011;20748;42.632;23.198;2023-08-17T00:18:06;13.02;;;8.50;;
34505;SDS011;20748;42.632;23.198;2023-08-17T00:20:38;12.93;;;9.07;;
34505;SDS011;20748;42.632;23.198;2023-08-17T00:23:10;12.02;;;8.30;;
34505;SDS011;20748;42.632;23.198;2023-08-17T00:25:43;12.38;;;7.97;;
34505;SDS011;20748;42.632;23.198;2023-08-17T00:28:16;15.60;;;8.52;;
34505;SDS011;20748;42.632;23.198;2023-08-17T00:30:48;12.32;;;8.63;;
34505;SDS011;20748;42.632;23.198;2023-08-17T00:33:21;11.32;;;8.18;;
34505;SDS011;20748;42.632;23.198;2023-08-17T00:35:53;14.15;;;9.10;;
34505;SDS011;20748;42.632;23.198;2023-08-17T00:38:25;13.32;;;8.65;;
34505;SDS011;20748;42.632;23.198;2023-08-17T00:40:58;12.00;;;8.48;;
34505;SDS011;20748;42.632;23.198;2023-08-17T00:43:31;12.27;;;7.75;;
34505;SDS011;20748;42.632;23.198;2023-08-17T00:46:03;13.32;;;8.15;;
34505;SDS011;20748;42.632;23.198;2023-08-17T00:48:38;12.77;;;8.63;;
34505;SDS011;20748;42.632;23.198;2023-08-17T00:51:10;13.60;;;8.90;;
34505;SDS011;20748;42.632;23.198;2023-08-17T00:53:43;13.57;;;8.73;;
34505;SDS011;20748;42.632;23.198;2023-08-17T00:56:16;16.58;;;9.73;;
34505;SDS011;20748;42.632;23.198;2023-08-17T00:58:49;11.73;;;8.18;;
34505;SDS011;20748;42.632;23.198;2023-08-17T01:01:22;11.27;;;8.25;;
34505;SDS011;20748;42.632;23.198;2023-08-17T01:03:55;11.68;;;8.15;;
34505;SDS011;20748;42.632;23.198;2023-08-17T01:06:27;11.05;;;7.68;;
34505;SDS011;20748;42.632;23.198;2023-08-17T01:09:00;12.85;;;8.48;;
34505;SDS011;20748;42.632;23.198;2023-08-17T01:11:34;13.18;;;8.57;;
34505;SDS011;20748;42.632;23.198;2023-08-17T01:14:12;12.23;;;8.52;;
34505;SDS011;20748;42.632;23.198;2023-08-17T01:16:52;11.90;;;7.82;;
34505;SDS011;20748;42.632;23.198;2023-08-17T01:19:32;12.88;;;8.38;;
34505;SDS011;20748;42.632;23.198;2023-08-17T01:22:06;9.52;;;7.35;;
34505;SDS011;20748;42.632;23.198;2023-08-17T01:24:41;11.57;;;8.55;;
34505;SDS011;20748;42.632;23.198;2023-08-17T01:27:13;13.65;;;8.18;;
34505;SDS011;20748;42.632;23.198;2023-08-17T01:29:46;9.90;;;7.88;;
34505;SDS011;20748;42.632;23.198;2023-08-17T01:32:21;11.68;;;7.75;;
34505;SDS011;20748;42.632;23.198;2023-08-17T01:35:01;13.75;;;8.02;;
34505;SDS011;20748;42.632;23.198;2023-08-17T01:37:40;11.27;;;7.53;;
34505;SDS011;20748;42.632;23.198;2023-08-17T01:40:15;11.57;;;7.40;;
34505;SDS011;20748;42.632;23.198;2023-08-17T01:42:49;11.05;;;7.55;;
34505;SDS011;20748;42.632;23.198;2023-08-17T01:45:22;10.75;;;7.70;;
34505;SDS011;20748;42.632;23.198;2023-08-17T01:47:55;10.18;;;7.65;;
34505;SDS011;20748;42.632;23.198;2023-08-17T01:50:28;10.82;;;7.57;;
34505;SDS011;20748;42.632;23.198;2023-08-17T01:53:00;10.20;;;7.35;;
34505;SDS011;20748;42.632;23.198;2023-08-17T01:55:33;13.48;;;8.73;;
34505;SDS011;20748;42.632;23.198;2023-08-17T01:58:06;11.98;;;7.47;;
34505;SDS011;20748;42.632;23.198;2023-08-17T02:00:39;14.73;;;7.43;;
34505;SDS011;20748;42.632;23.198;2023-08-17T02:03:11;13.00;;;8.65;;
34505;SDS011;20748;42.632;23.198;2023-08-17T02:05:44;12.90;;;8.88;;
34505;SDS011;20748;42.632;23.198;2023-08-17T02:08:18;11.25;;;7.30;;
34505;SDS011;20748;42.632;23.198;2023-08-17T02:10:51;11.15;;;6.85;;
34505;SDS011;20748;42.632;23.198;2023-08-17T02:13:24;12.35;;;8.18;;
34505;SDS011;20748;42.632;23.198;2023-08-17T02:15:59;18.80;;;11.35;;
34505;SDS011;20748;42.632;23.198;2023-08-17T02:18:32;11.30;;;8.15;;
34505;SDS011;20748;42.632;23.198;2023-08-17T02:21:06;13.90;;;8.38;;
34505;SDS011;20748;42.632;23.198;2023-08-17T02:23:38;12.43;;;8.25;;
34505;SDS011;20748;42.632;23.198;2023-08-17T02:26:11;14.95;;;8.30;;
34505;SDS011;20748;42.632;23.198;2023-08-17T02:28:44;10.00;;;6.85;;
34505;SDS011;20748;42.632;23.198;2023-08-17T02:31:16;9.40;;;6.40;;
34505;SDS011;20748;42.632;23.198;2023-08-17T02:33:49;12.73;;;7.50;;
34505;SDS011;20748;42.632;23.198;2023-08-17T02:36:21;11.38;;;7.45;;
34505;SDS011;20748;42.632;23.198;2023-08-17T02:38:53;12.85;;;8.50;;
34505;SDS011;20748;42.632;23.198;2023-08-17T02:41:26;13.30;;;6.60;;
34505;SDS011;20748;42.632;23.198;2023-08-17T02:43:59;8.52;;;6.10;;
34505;SDS011;20748;42.632;23.198;2023-08-17T02:46:32;10.80;;;6.72;;
34505;SDS011;20748;42.632;23.198;2023-08-17T02:49:04;9.82;;;6.78;;
34505;SDS011;20748;42.632;23.198;2023-08-17T02:51:36;11.25;;;6.63;;
34505;SDS011;20748;42.632;23.198;2023-08-17T02:54:09;11.70;;;6.70;;
34505;SDS011;20748;42.632;23.198;2023-08-17T02:56:42;9.77;;;5.55;;
34505;SDS011;20748;42.632;23.198;2023-08-17T02:59:14;13.13;;;8.18;;
34505;SDS011;20748;42.632;23.198;2023-08-17T03:01:47;10.65;;;6.57;;
34505;SDS011;20748;42.632;23.198;2023-08-17T03:04:20;9.48;;;6.75;;
34505;SDS011;20748;42.632;23.198;2023-08-17T03:06:52;8.35;;;5.75;;
34505;SDS011;20748;42.632;23.198;2023-08-17T03:09:25;10.13;;;6.72;;
34505;SDS011;20748;42.632;23.198;2023-08-17T03:11:59;14.18;;;5.80;;
34505;SDS011;20748;42.632;23.198;2023-08-17T03:14:31;19.10;;;6.53;;
34505;SDS011;20748;42.632;23.198;2023-08-17T03:17:04;10.00;;;6.38;;
34505;SDS011;20748;42.632;23.198;2023-08-17T03:19:37;10.57;;;6.18;;
34505;SDS011;20748;42.632;23.198;2023-08-17T03:22:10;9.80;;;5.80;;
34505;SDS011;20748;42.632;23.198;2023-08-17T03:24:42;9.88;;;6.10;;
34505;SDS011;20748;42.632;23.198;2023-08-17T03:27:15;10.00;;;6.07;;
34505;SDS011;20748;42.632;23.198;2023-08-17T03:29:48;11.52;;;6.55;;
34505;SDS011;20748;42.632;23.198;2023-08-17T03:32:20;11.35;;;5.90;;
34505;SDS011;20748;42.632;23.198;2023-08-17T03:34:53;9.38;;;6.32;;
34505;SDS011;20748;42.632;23.198;2023-08-17T03:37:26;10.23;;;6.30;;
34505;SDS011;20748;42.632;23.198;2023-08-17T03:39:59;11.43;;;6.00;;
34505;SDS011;20748;42.632;23.198;2023-08-17T03:42:35;8.50;;;6.07;;
34505;SDS011;20748;42.632;23.198;2023-08-17T03:45:08;10.60;;;6.88;;
34505;SDS011;20748;42.632;23.198;2023-08-17T03:47:40;11.07;;;5.80;;
34505;SDS011;20748;42.632;23.198;2023-08-17T03:50:13;8.75;;;5.38;;
34505;SDS011;20748;42.632;23.198;2023-08-17T03:52:45;12.88;;;5.72;;
34505;SDS011;20748;42.632;23.198;2023-08-17T03:55:18;10.23;;;6.85;;
34505;SDS011;20748;42.632;23.198;2023-08-17T03:57:51;7.47;;;4.10;;
34505;SDS011;20748;42.632;23.198;2023-08-17T04:00:23;11.38;;;3.75;;
34505;SDS011;20748;42.632;23.198;2023-08-17T04:03:01;12.15;;;4.30;;
34505;SDS011;20748;42.632;23.198;2023-08-17T04:05:33;10.45;;;4.57;;
34505;SDS011;20748;42.632;23.198;2023-08-17T04:08:06;8.02;;;5.57;;
34505;SDS011;20748;42.632;23.198;2023-08-17T04:10:38;9.98;;;5.97;;
34505;SDS011;20748;42.632;23.198;2023-08-17T04:13:11;11.50;;;6.38;;
34505;SDS011;20748;42.632;23.198;2023-08-17T04:15:44;9.88;;;6.45;;
34505;SDS011;20748;42.632;23.198;2023-08-17T04:18:17;12.30;;;6.00;;
34505;SDS011;20748;42.632;23.198;2023-08-17T04:20:49;6.55;;;4.35;;
34505;SDS011;20748;42.632;23.198;2023-08-17T04:23:26;4.80;;;3.30;;
34505;SDS011;20748;42.632;23.198;2023-08-17T04:25:58;5.20;;;3.05;;
34505;SDS011;20748;42.632;23.198;2023-08-17T04:28:33;6.68;;;3.15;;
34505;SDS011;20748;42.632;23.198;2023-08-17T04:31:06;7.63;;;3.55;;
34505;SDS011;20748;42.632;23.198;2023-08-17T04:33:42;5.35;;;3.10;;
34505;SDS011;20748;42.632;23.198;2023-08-17T04:36:15;5.25;;;3.20;;
34505;SDS011;20748;42.632;23.198;2023-08-17T04:38:47;6.68;;;2.67;;
34505;SDS011;20748;42.632;23.198;2023-08-17T04:41:19;4.80;;;2.70;;
34505;SDS011;20748;42.632;23.198;2023-08-17T04:43:53;5.13;;;2.50;;
34505;SDS011;20748;42.632;23.198;2023-08-17T04:46:26;4.13;;;2.60;;
34505;SDS011;20748;42.632;23.198;2023-08-17T04:48:58;5.38;;;2.45;;
34505;SDS011;20748;42.632;23.198;2023-08-17T04:51:32;4.93;;;2.80;;
34505;SDS011;20748;42.632;23.198;2023-08-17T04:54:04;3.40;;;2.20;;
34505;SDS011;20748;42.632;23.198;2023-08-17T04:56:37;4.35;;;2.08;;
34505;SDS011;20748;42.632;23.198;2023-08-17T04:59:10;6.15;;;2.30;;
34505;SDS011;20748;42.632;23.198;2023-08-17T05:01:43;4.38;;;2.40;;
34505;SDS011;20748;42.632;23.198;2023-08-17T05:04:16;5.97;;;3.70;;
34505;SDS011;20748;42.632;23.198;2023-08-17T05:06:48;6.97;;;2.90;;
34505;SDS011;20748;42.632;23.198;2023-08-17T05:09:21;4.05;;;1.98;;
34505;SDS011;20748;42.632;23.198;2023-08-17T05:11:53;5.35;;;2.00;;
34505;SDS011;20748;42.632;23.198;2023-08-17T05:14:26;5.05;;;2.03;;
34505;SDS011;20748;42.632;23.198;2023-08-17T05:16:59;5.53;;;2.08;;
34505;SDS011;20748;42.632;23.198;2023-08-17T05:19:32;6.95;;;2.70;;
34505;SDS011;20748;42.632;23.198;2023-08-17T05:22:05;5.35;;;2.67;;
34505;SDS011;20748;42.632;23.198;2023-08-17T05:24:40;7.32;;;3.05;;
34505;SDS011;20748;42.632;23.198;2023-08-17T05:27:12;4.88;;;2.70;;
34505;SDS011;20748;42.632;23.198;2023-08-17T05:29:45;4.07;;;2.75;;
34505;SDS011;20748;42.632;23.198;2023-08-17T05:32:18;3.63;;;2.58;;
34505;SDS011;20748;42.632;23.198;2023-08-17T05:34:51;7.10;;;3.70;;
34505;SDS011;20748;42.632;23.198;2023-08-17T05:37:25;6.22;;;2.30;;
34505;SDS011;20748;42.632;23.198;2023-08-17T05:39:58;3.40;;;2.15;;
34505;SDS011;20748;42.632;23.198;2023-08-17T05:42:30;7.18;;;2.63;;
34505;SDS011;20748;42.632;23.198;2023-08-17T05:45:04;4.15;;;2.10;;
34505;SDS011;20748;42.632;23.198;2023-08-17T05:47:37;5.85;;;2.40;;
34505;SDS011;20748;42.632;23.198;2023-08-17T05:50:09;4.97;;;2.42;;
34505;SDS011;20748;42.632;23.198;2023-08-17T05:52:41;4.35;;;2.42;;
34505;SDS011;20748;42.632;23.198;2023-08-17T05:55:14;5.80;;;2.63;;
34505;SDS011;20748;42.632;23.198;2023-08-17T05:57:46;6.57;;;2.70;;
34505;SDS011;20748;42.632;23.198;2023-08-17T06:00:19;6.65;;;2.95;;
34505;SDS011;20748;42.632;23.198;2023-08-17T06:02:52;4.45;;;2.40;;
34505;SDS011;20748;42.632;23.198;2023-08-17T06:05:26;5.57;;;3.08;;
34505;SDS011;20748;42.632;23.198;2023-08-17T06:08:00;5.97;;;3.13;;
34505;SDS011;20748;42.632;23.198;2023-08-17T06:10:32;6.10;;;3.00;;
34505;SDS011;20748;42.632;23.198;2023-08-17T06:13:04;3.65;;;2.72;;
34505;SDS011;20748;42.632;23.198;2023-08-17T06:15:38;5.93;;;2.63;;
34505;SDS011;20748;42.632;23.198;2023-08-17T06:18:10;6.43;;;2.80;;
34505;SDS011;20748;42.632;23.198;2023-08-17T06:20:42;6.20;;;3.33;;
34505;SDS011;20748;42.632;23.198;2023-08-17T06:23:17;5.85;;;2.70;;
34505;SDS011;20748;42.632;23.198;2023-08-17T06:25:51;5.72;;;3.10;;
34505;SDS011;20748;42.632;23.198;2023-08-17T06:28:23;4.63;;;2.90;;
34505;SDS011;20748;42.632;23.198;2023-08-17T06:30:56;5.78;;;3.05;;
34505;SDS011;20748;42.632;23.198;2023-08-17T06:33:28;5.28;;;2.80;;
34505;SDS011;20748;42.632;23.198;2023-08-17T06:36:01;6.75;;;3.58;;
34505;SDS011;20748;42.632;23.198;2023-08-17T06:38:33;7.35;;;2.88;;
34505;SDS011;20748;42.632;23.198;2023-08-17T06:41:06;4.20;;;2.55;;
34505;SDS011;20748;42.632;23.198;2023-08-17T06:43:38;9.02;;;3.47;;
34505;SDS011;20748;42.632;23.198;2023-08-17T06:46:11;6.93;;;3.20;;
34505;SDS011;20748;42.632;23.198;2023-08-17T06:48:44;5.78;;;2.78;;
34505;SDS011;20748;42.632;23.198;2023-08-17T06:51:16;4.78;;;3.15;;
34505;SDS011;20748;42.632;23.198;2023-08-17T06:53:49;4.10;;;2.70;;
34505;SDS011;20748;42.632;23.198;2023-08-17T06:56:21;6.57;;;3.15;;
34505;SDS011;20748;42.632;23.198;2023-08-17T06:58:54;7.28;;;2.88;;
34505;SDS011;20748;42.632;23.198;2023-08-17T07:01:27;8.73;;;3.30;;
34505;SDS011;20748;42.632;23.198;2023-08-17T07:03:59;5.63;;;2.88;;
34505;SDS011;20748;42.632;23.198;2023-08-17T07:06:31;5.32;;;2.97;;
34505;SDS011;20748;42.632;23.198;2023-08-17T07:09:04;4.32;;;3.05;;
34505;SDS011;20748;42.632;23.198;2023-08-17T07:11:37;3.97;;;2.58;;
34505;SDS011;20748;42.632;23.198;2023-08-17T07:14:10;5.43;;;2.67;;
34505;SDS011;20748;42.632;23.198;2023-08-17T07:16:43;5.15;;;3.05;;
34505;SDS011;20748;42.632;23.198;2023-08-17T07:19:15;5.03;;;3.50;;
34505;SDS011;20748;42.632;23.198;2023-08-17T07:21:47;8.68;;;2.72;;
34505;SDS011;20748;42.632;23.198;2023-08-17T07:24:20;5.43;;;3.25;;
34505;SDS011;20748;42.632;23.198;2023-08-17T07:26:52;4.35;;;3.03;;
34505;SDS011;20748;42.632;23.198;2023-08-17T07:29:24;6.05;;;3.33;;
34505;SDS011;20748;42.632;23.198;2023-08-17T07:31:57;12.68;;;3.22;;
34505;SDS011;20748;42.632;23.198;2023-08-17T07:34:33;4.55;;;2.92;;
34505;SDS011;20748;42.632;23.198;2023-08-17T07:37:05;5.28;;;2.75;;
34505;SDS011;20748;42.632;23.198;2023-08-17T07:39:38;5.50;;;2.83;;
34505;SDS011;20748;42.632;23.198;2023-08-17T07:42:10;6.55;;;3.08;;
34505;SDS011;20748;42.632;23.198;2023-08-17T07:44:42;5.93;;;2.50;;
34505;SDS011;20748;42.632;23.198;2023-08-17T07:47:15;3.92;;;2.58;;
34505;SDS011;20748;42.632;23.198;2023-08-17T07:49:48;7.13;;;2.70;;
34505;SDS011;20748;42.632;23.198;2023-08-17T07:52:21;3.83;;;2.45;;
34505;SDS011;20748;42.632;23.198;2023-08-17T07:54:53;5.65;;;2.80;;
34505;SDS011;20748;42.632;23.198;2023-08-17T07:57:25;7.22;;;2.33;;
34505;SDS011;20748;42.632;23.198;2023-08-17T07:59:58;2.97;;;2.30;;
34505;SDS011;20748;42.632;23.198;2023-08-17T08:02:32;3.97;;;1.92;;
34505;SDS011;20748;42.632;23.198;2023-08-17T08:05:05;4.53;;;2.53;;
34505;SDS011;20748;42.632;23.198;2023-08-17T08:07:37;4.57;;;2.47;;
34505;SDS011;20748;42.632;23.198;2023-08-17T08:10:10;3.28;;;2.22;;
34505;SDS011;20748;42.632;23.198;2023-08-17T08:12:42;3.85;;;2.42;;
34505;SDS011;20748;42.632;23.198;2023-08-17T08:15:15;3.72;;;2.28;;
34505;SDS011;20748;42.632;23.198;2023-08-17T08:17:48;3.28;;;2.10;;
34505;SDS011;20748;42.632;23.198;2023-08-17T08:20:20;4.57;;;2.10;;
34505;SDS011;20748;42.632;23.198;2023-08-17T08:22:53;8.13;;;2.30;;
34505;SDS011;20748;42.632;23.198;2023-08-17T08:25:25;4.68;;;2.33;;
34505;SDS011;20748;42.632;23.198;2023-08-17T08:27:57;4.30;;;2.78;;
34505;SDS011;20748;42.632;23.198;2023-08-17T08:30:30;4.72;;;2.17;;
34505;SDS011;20748;42.632;23.198;2023-08-17T08:33:03;3.22;;;2.08;;
34505;SDS011;20748;42.632;23.198;2023-08-17T08:35:36;4.03;;;2.10;;
34505;SDS011;20748;42.632;23.198;2023-08-17T08:38:08;6.60;;;2.55;;
34505;SDS011;20748;42.632;23.198;2023-08-17T08:40:41;3.72;;;2.55;;
34505;SDS011;20748;42.632;23.198;2023-08-17T08:43:15;3.38;;;2.35;;
34505;SDS011;20748;42.632;23.198;2023-08-17T08:45:48;3.75;;;2.33;;
34505;SDS011;20748;42.632;23.198;2023-08-17T08:48:22;4.72;;;2.35;;
34505;SDS011;20748;42.632;23.198;2023-08-17T08:50:59;4.55;;;2.63;;
34505;SDS011;20748;42.632;23.198;2023-08-17T08:53:38;6.95;;;2.55;;
34505;SDS011;20748;42.632;23.198;2023-08-17T08:56:16;3.17;;;2.47;;
34505;SDS011;20748;42.632;23.198;2023-08-17T08:58:52;6.43;;;3.47;;
34505;SDS011;20748;42.632;23.198;2023-08-17T09:01:26;2.50;;;1.98;;
34505;SDS011;20748;42.632;23.198;2023-08-17T09:03:59;5.60;;;2.10;;
34505;SDS011;20748;42.632;23.198;2023-08-17T09:06:33;3.22;;;2.10;;
34505;SDS011;20748;42.632;23.198;2023-08-17T09:09:06;5.05;;;2.10;;
34505;SDS011;20748;42.632;23.198;2023-08-17T09:11:39;8.20;;;3.13;;
34505;SDS011;20748;42.632;23.198;2023-08-17T09:14:16;3.65;;;2.33;;
34505;SDS011;20748;42.632;23.198;2023-08-17T09:16:48;4.45;;;2.78;;
34505;SDS011;20748;42.632;23.198;2023-08-17T09:19:21;4.00;;;2.47;;
34505;SDS011;20748;42.632;23.198;2023-08-17T09:21:54;9.85;;;3.10;;
34505;SDS011;20748;42.632;23.198;2023-08-17T09:24:33;8.68;;;3.40;;
34505;SDS011;20748;42.632;23.198;2023-08-17T09:27:06;4.53;;;2.58;;
34505;SDS011;20748;42.632;23.198;2023-08-17T09:29:44;3.70;;;2.80;;
34505;SDS011;20748;42.632;23.198;2023-08-17T09:32:17;3.80;;;2.60;;
34505;SDS011;20748;42.632;23.198;2023-08-17T09:34:50;3.47;;;2.22;;
34505;SDS011;20748;42.632;23.198;2023-08-17T09:37:23;4.03;;;2.38;;
34505;SDS011;20748;42.632;23.198;2023-08-17T09:39:55;9.75;;;2.65;;
34505;SDS011;20748;42.632;23.198;2023-08-17T09:42:28;3.22;;;2.30;;
34505;SDS011;20748;42.632;23.198;2023-08-17T09:45:00;5.45;;;2.67;;
34505;SDS011;20748;42.632;23.198;2023-08-17T09:47:35;5.15;;;2.10;;
34505;SDS011;20748;42.632;23.198;2023-08-17T09:50:09;4.10;;;2.72;;
34505;SDS011;20748;42.632;23.198;2023-08-17T09:52:42;2.53;;;1.92;;
34505;SDS011;20748;42.632;23.198;2023-08-17T09:55:14;4.82;;;2.67;;
34505;SDS011;20748;42.632;23.198;2023-08-17T09:57:47;4.20;;;2.38;;
34505;SDS011;20748;42.632;23.198;2023-08-17T10:00:21;4.80;;;2.45;;
34505;SDS011;20748;42.632;23.198;2023-08-17T10:02:53;2.75;;;2.25;;
34505;SDS011;20748;42.632;23.198;2023-08-17T10:05:28;3.78;;;2.25;;
34505;SDS011;20748;42.632;23.198;2023-08-17T10:08:03;2.00;;;1.60;;
34505;SDS011;20748;42.632;23.198;2023-08-17T10:10:40;3.17;;;2.13;;
34505;SDS011;20748;42.632;23.198;2023-08-17T10:13:16;4.72;;;1.98;;
34505;SDS011;20748;42.632;23.198;2023-08-17T10:15:57;3.83;;;1.88;;
34505;SDS011;20748;42.632;23.198;2023-08-17T10:18:35;3.00;;;1.80;;
34505;SDS011;20748;42.632;23.198;2023-08-17T10:21:16;9.63;;;2.83;;
34505;SDS011;20748;42.632;23.198;2023-08-17T10:23:58;2.95;;;1.98;;
34505;SDS011;20748;42.632;23.198;2023-08-17T10:26:32;2.88;;;1.83;;
34505;SDS011;20748;42.632;23.198;2023-08-17T10:29:05;2.85;;;1.77;;
34505;SDS011;20748;42.632;23.198;2023-08-17T10:31:48;3.58;;;1.50;;
34505;SDS011;20748;42.632;23.198;2023-08-17T10:34:21;2.35;;;1.63;;
34505;SDS011;20748;42.632;23.198;2023-08-17T10:36:54;2.83;;;1.58;;
34505;SDS011;20748;42.632;23.198;2023-08-17T10:39:29;2.20;;;1.58;;
34505;SDS011;20748;42.632;23.198;2023-08-17T10:42:02;2.92;;;1.50;;
34505;SDS011;20748;42.632;23.198;2023-08-17T10:44:38;2.60;;;1.52;;
34505;SDS011;20748;42.632;23.198;2023-08-17T10:47:18;3.35;;;1.70;;
34505;SDS011;20748;42.632;23.198;2023-08-17T10:49:56;3.20;;;2.10;;
34505;SDS011;20748;42.632;23.198;2023-08-17T10:52:30;4.40;;;1.58;;
34505;SDS011;20748;42.632;23.198;2023-08-17T10:55:07;2.67;;;1.90;;
34505;SDS011;20748;42.632;23.198;2023-08-17T10:57:41;2.33;;;1.77;;
34505;SDS011;20748;42.632;23.198;2023-08-17T11:00:15;2.13;;;1.45;;
34505;SDS011;20748;42.632;23.198;2023-08-17T11:02:53;2.30;;;1.58;;
34505;SDS011;20748;42.632;23.198;2023-08-17T11:08:28;2.50;;;1.58;;
34505;SDS011;20748;42.632;23.198;2023-08-17T11:13:37;3.53;;;1.92;;
34505;SDS011;20748;42.632;23.198;2023-08-17T11:16:12;3.03;;;1.92;;
34505;SDS011;20748;42.632;23.198;2023-08-17T11:18:49;2.75;;;1.80;;
34505;SDS011;20748;42.632;23.198;2023-08-17T11:21:22;2.15;;;1.55;;
34505;SDS011;20748;42.632;23.198;2023-08-17T11:23:56;2.10;;;1.52;;
34505;SDS011;20748;42.632;23.198;2023-08-17T11:26:29;2.22;;;1.33;;
34505;SDS011;20748;42.632;23.198;2023-08-17T11:29:07;3.40;;;2.28;;
34505;SDS011;20748;42.632;23.198;2023-08-17T11:31:39;2.40;;;2.10;;
34505;SDS011;20748;42.632;23.198;2023-08-17T11:34:14;3.40;;;2.28;;
34505;SDS011;20748;42.632;23.198;2023-08-17T11:36:46;4.85;;;2.05;;
34505;SDS011;20748;42.632;23.198;2023-08-17T11:39:19;4.90;;;1.83;;
34505;SDS011;20748;42.632;23.198;2023-08-17T11:41:52;2.00;;;1.40;;
34505;SDS011;20748;42.632;23.198;2023-08-17T11:44:25;3.13;;;2.45;;
34505;SDS011;20748;42.632;23.198;2023-08-17T11:46:57;2.63;;;1.75;;
34505;SDS011;20748;42.632;23.198;2023-08-17T11:49:30;3.35;;;1.80;;
34505;SDS011;20748;42.632;23.198;2023-08-17T11:52:03;4.97;;;2.63;;
34505;SDS011;20748;42.632;23.198;2023-08-17T11:54:40;2.80;;;2.05;;
34505;SDS011;20748;42.632;23.198;2023-08-17T11:57:12;2.33;;;1.60;;
34505;SDS011;20748;42.632;23.198;2023-08-17T11:59:47;2.83;;;1.95;;
34505;SDS011;20748;42.632;23.198;2023-08-17T12:02:20;2.50;;;1.83;;
34505;SDS011;20748;42.632;23.198;2023-08-17T12:04:55;3.38;;;2.13;;
34505;SDS011;20748;42.632;23.198;2023-08-17T12:07:28;2.63;;;2.17;;
34505;SDS011;20748;42.632;23.198;2023-08-17T12:10:03;3.33;;;1.80;;
34505;SDS011;20748;42.632;23.198;2023-08-17T12:12:37;3.67;;;2.63;;
34505;SDS011;20748;42.632;23.198;2023-08-17T12:15:10;3.75;;;2.30;;
34505;SDS011;20748;42.632;23.198;2023-08-17T12:17:46;6.35;;;2.33;;
34505;SDS011;20748;42.632;23.198;2023-08-17T12:20:20;7.32;;;2.90;;
34505;SDS011;20748;42.632;23.198;2023-08-17T12:22:52;5.55;;;3.22;;
34505;SDS011;20748;42.632;23.198;2023-08-17T12:25:25;2.53;;;1.80;;
34505;SDS011;20748;42.632;23.198;2023-08-17T12:27:58;3.15;;;2.30;;
34505;SDS011;20748;42.632;23.198;2023-08-17T12:30:32;3.05;;;2.10;;
34505;SDS011;20748;42.632;23.198;2023-08-17T12:33:08;2.97;;;2.45;;
34505;SDS011;20748;42.632;23.198;2023-08-17T12:35:40;3.15;;;2.38;;
34505;SDS011;20748;42.632;23.198;2023-08-17T12:38:13;3.13;;;2.58;;
34505;SDS011;20748;42.632;23.198;2023-08-17T12:40:46;3.53;;;2.67;;
34505;SDS011;20748;42.632;23.198;2023-08-17T12:43:18;6.47;;;2.65;;
34505;SDS011;20748;42.632;23.198;2023-08-17T12:45:51;4.60;;;2.67;;
34505;SDS011;20748;42.632;23.198;2023-08-17T12:48:23;3.05;;;2.47;;
34505;SDS011;20748;42.632;23.198;2023-08-17T12:50:56;4.03;;;2.33;;
34505;SDS011;20748;42.632;23.198;2023-08-17T12:53:28;3.78;;;2.60;;
34505;SDS011;20748;42.632;23.198;2023-08-17T12:56:04;4.00;;;2.45;;
34505;SDS011;20748;42.632;23.198;2023-08-17T12:58:37;3.45;;;2.47;;
34505;SDS011;20748;42.632;23.198;2023-08-17T13:01:17;3.28;;;2.10;;
34505;SDS011;20748;42.632;23.198;2023-08-17T13:03:50;3.55;;;2.60;;
34505;SDS011;20748;42.632;23.198;2023-08-17T13:06:22;3.78;;;2.50;;
34505;SDS011;20748;42.632;23.198;2023-08-17T13:08:58;27.85;;;15.27;;
34505;SDS011;20748;42.632;23.198;2023-08-17T13:11:31;6.05;;;3.25;;
34505;SDS011;20748;42.632;23.198;2023-08-17T13:14:03;5.22;;;3.08;;
34505;SDS011;20748;42.632;23.198;2023-08-17T13:16:36;4.38;;;3.15;;
34505;SDS011;20748;42.632;23.198;2023-08-17T13:19:08;4.00;;;3.03;;
34505;SDS011;20748;42.632;23.198;2023-08-17T13:21:44;4.75;;;3.50;;
34505;SDS011;20748;42.632;23.198;2023-08-17T13:24:16;4.78;;;3.47;;
34505;SDS011;20748;42.632;23.198;2023-08-17T13:26:49;3.80;;;2.95;;
34505;SDS011;20748;42.632;23.198;2023-08-17T13:29:24;6.72;;;3.97;;
34505;SDS011;20748;42.632;23.198;2023-08-17T13:31:56;7.90;;;3.88;;
34505;SDS011;20748;42.632;23.198;2023-08-17T13:34:29;8.40;;;4.70;;
34505;SDS011;20748;42.632;23.198;2023-08-17T13:37:02;4.93;;;3.33;;
34505;SDS011;20748;42.632;23.198;2023-08-17T13:39:34;4.90;;;3.28;;
34505;SDS011;20748;42.632;23.198;2023-08-17T13:42:07;5.10;;;3.40;;
34505;SDS011;20748;42.632;23.198;2023-08-17T13:44:39;3.65;;;2.85;;
34505;SDS011;20748;42.632;23.198;2023-08-17T13:47:12;4.80;;;3.33;;
34505;SDS011;20748;42.632;23.198;2023-08-17T13:49:44;4.32;;;3.28;;
34505;SDS011;20748;42.632;23.198;2023-08-17T13:52:17;4.00;;;3.15;;
34505;SDS011;20748;42.632;23.198;2023-08-17T13:54:49;4.10;;;3.10;;
34505;SDS011;20748;42.632;23.198;2023-08-17T13:57:22;5.13;;;3.95;;
34505;SDS011;20748;42.632;23.198;2023-08-17T13:59:55;4.88;;;4.03;;
34505;SDS011;20748;42.632;23.198;2023-08-17T14:02:27;6.25;;;4.00;;
34505;SDS011;20748;42.632;23.198;2023-08-17T14:05:06;5.67;;;3.47;;
34505;SDS011;20748;42.632;23.198;2023-08-17T14:07:38;4.22;;;3.30;;
34505;SDS011;20748;42.632;23.198;2023-08-17T14:10:11;4.15;;;3.30;;
34505;SDS011;20748;42.632;23.198;2023-08-17T14:15:34;5.18;;;3.25;;
34505;SDS011;20748;42.632;23.198;2023-08-17T14:18:06;4.47;;;3.38;;
34505;SDS011;20748;42.632;23.198;2023-08-17T14:20:39;4.55;;;3.05;;
34505;SDS011;20748;42.632;23.198;2023-08-17T14:23:11;4.47;;;3.42;;
34505;SDS011;20748;42.632;23.198;2023-08-17T14:25:44;5.13;;;3.20;;
34505;SDS011;20748;42.632;23.198;2023-08-17T14:28:17;4.40;;;3.25;;
34505;SDS011;20748;42.632;23.198;2023-08-17T14:30:49;9.57;;;3.35;;
34505;SDS011;20748;42.632;23.198;2023-08-17T14:33:24;5.60;;;3.22;;
34505;SDS011;20748;42.632;23.198;2023-08-17T14:35:57;4.15;;;2.80;;
34505;SDS011;20748;42.632;23.198;2023-08-17T14:38:29;6.95;;;3.65;;
34505;SDS011;20748;42.632;23.198;2023-08-17T14:41:05;3.55;;;2.70;;
34505;SDS011;20748;42.632;23.198;2023-08-17T14:43:40;6.78;;;2.97;;
34505;SDS011;20748;42.632;23.198;2023-08-17T14:46:14;4.38;;;2.95;;
34505;SDS011;20748;42.632;23.198;2023-08-17T14:48:47;5.65;;;3.22;;
34505;SDS011;20748;42.632;23.198;2023-08-17T14:51:19;6.32;;;2.75;;
34505;SDS011;20748;42.632;23.198;2023-08-17T14:53:52;3.45;;;3.08;;
34505;SDS011;20748;42.632;23.198;2023-08-17T14:56:24;4.28;;;3.40;;
34505;SDS011;20748;42.632;23.198;2023-08-17T14:58:57;7.28;;;3.17;;
34505;SDS011;20748;42.632;23.198;2023-08-17T15:01:30;3.53;;;2.83;;
34505;SDS011;20748;42.632;23.198;2023-08-17T15:04:02;5.40;;;2.88;;
34505;SDS011;20748;42.632;23.198;2023-08-17T15:06:35;7.68;;;4.07;;
34505;SDS011;20748;42.632;23.198;2023-08-17T15:09:15;6.22;;;2.80;;
34505;SDS011;20748;42.632;23.198;2023-08-17T15:11:48;5.05;;;3.33;;
34505;SDS011;20748;42.632;23.198;2023-08-17T15:14:22;5.50;;;3.20;;